Time;durP1;ratioP1;P1;durP2;ratioP2;P2;SDS_P1;SDS_P2;PMS_P1;PMS_P2;Temp;Humidity;BMP_temperature;BMP_pressure;BME280_temperature;BME280_humidity;BME280_pressure;Samples;Min_cycle;Max_cycle;Signal;HPM_P1;HPM_P2
2021/08/24 00:01:14;;;;;;;;;;;17.10;99.90;;;;;;5095561;28;20111;-79
2021/08/24 00:03:40;;;;;;;12.35;5.68;;;17.00;99.90;;;;;;5094571;28;19920;-78
2021/08/24 00:06:06;;;;;;;;;;;17.00;99.90;;;;;;5095286;28;20555;-79
2021/08/24 00:08:34;;;;;;;13.20;6.35;;;17.00;99.90;;;;;;5094333;28;19978;-79
2021/08/24 00:11:00;;;;;;;16.70;6.57;;;16.90;99.90;;;;;;5076575;28;20031;-79
2021/08/24 00:13:26;;;;;;;;;;;16.90;99.90;;;;;;5095450;28;20025;-79
2021/08/24 00:15:53;;;;;;;12.90;6.47;;;17.00;99.90;;;;;;5094700;28;20325;-78
2021/08/24 00:18:19;;;;;;;13.73;6.70;;;17.00;99.90;;;;;;5094651;28;20483;-78
2021/08/24 00:20:46;;;;;;;;;;;16.90;99.90;;;;;;5095314;28;20104;-80
2021/08/24 00:23:15;;;;;;;17.77;6.00;;;17.10;99.90;;;;;;5095123;28;20264;-78
2021/08/24 00:25:41;;;;;;;13.23;6.57;;;17.20;99.90;;;;;;5094317;28;20476;-79
2021/08/24 00:28:07;;;;;;;15.45;5.75;;;17.20;99.90;;;;;;5094449;28;20021;-77
2021/08/24 00:30:34;;;;;;;12.90;5.90;;;17.20;99.90;;;;;;5094414;28;20016;-78
2021/08/24 00:33:00;;;;;;;12.30;5.57;;;17.00;99.90;;;;;;5076137;28;20113;-78
2021/08/24 00:35:26;;;;;;;;;;;17.10;99.90;;;;;;5094710;28;20491;-79
2021/08/24 00:37:52;;;;;;;10.55;5.10;;;16.90;99.90;;;;;;5094325;28;19904;-79
2021/08/24 00:40:18;;;;;;;15.23;6.05;;;16.80;99.90;;;;;;5094240;28;20027;-78
2021/08/24 00:42:44;;;;;;;;;;;16.70;99.90;;;;;;5094798;28;20025;-79
2021/08/24 00:45:12;;;;;;;11.95;5.38;;;16.70;99.90;;;;;;5094106;28;19935;-79
2021/08/24 00:47:42;;;;;;;15.10;6.43;;;16.60;99.90;;;;;;5094177;28;20027;-79
2021/08/24 00:50:17;;;;;;;16.67;5.95;;;16.70;99.90;;;;;;5094097;28;20430;-78
2021/08/24 00:52:43;;;;;;;15.93;6.03;;;16.80;99.90;;;;;;5075621;28;20035;-79
2021/08/24 00:55:09;;;;;;;12.05;6.00;;;16.80;99.90;;;;;;5094149;28;20448;-79
2021/08/24 00:57:35;;;;;;;;;;;16.70;99.90;;;;;;5094478;28;20055;-79
2021/08/24 01:00:01;;;;;;;12.48;5.75;;;16.60;99.90;;;;;;5093939;28;20380;-77
2021/08/24 01:02:26;;;;;;;;;;;16.50;99.90;;;;;;5075295;28;20052;-78
2021/08/24 01:04:54;;;;;;;16.55;6.18;;;16.50;99.90;;;;;;5094080;28;19961;-79
2021/08/24 01:07:50;;;;;;;14.38;6.60;;;16.40;99.90;;;;;;5093733;28;20480;-78
2021/08/24 01:10:31;;;;;;;15.82;6.50;;;16.40;99.90;;;;;;5093710;28;20016;-77
2021/08/24 01:13:12;;;;;;;19.10;6.97;;;16.40;99.90;;;;;;5093756;28;20468;-79
2021/08/24 01:15:50;;;;;;;15.15;6.28;;;16.60;99.90;;;;;;5075218;28;20396;-78
2021/08/24 01:18:31;;;;;;;14.95;6.40;;;16.40;99.90;;;;;;5093750;28;20081;-77
2021/08/24 01:21:32;;;;;;;14.13;6.43;;;16.50;99.90;;;;;;5092828;28;20028;-78
2021/08/24 01:24:20;;;;;;;17.02;7.15;;;16.40;99.90;;;;;;5093439;28;20024;-78
2021/08/24 01:27:05;;;;;;;18.70;6.97;;;16.20;99.90;;;;;;5093534;28;20020;-78
2021/08/24 01:30:05;;;;;;;17.00;7.03;;;16.10;99.90;;;;;;5093712;28;20099;-78
2021/08/24 01:32:47;;;;;;;14.77;6.45;;;16.10;99.90;;;;;;5093530;28;20016;-78
2021/08/24 01:35:23;;;;;;;15.35;6.20;;;16.10;99.90;;;;;;5093436;28;20028;-79
2021/08/24 01:38:17;;;;;;;13.63;6.18;;;16.10;99.90;;;;;;5075063;28;20028;-78
2021/08/24 01:41:10;;;;;;;16.65;6.60;;;16.00;99.90;;;;;;5075018;28;20016;-78
2021/08/24 01:43:48;;;;;;;13.70;6.20;;;16.10;99.90;;;;;;5075221;28;20028;-79
2021/08/24 01:46:31;;;;;;;16.17;7.15;;;16.10;99.90;;;;;;5093428;28;20101;-79
2021/08/24 01:49:00;;;;;;;19.38;6.78;;;16.00;99.90;;;;;;5093571;28;20020;-78
2021/08/24 01:51:35;;;;;;;13.90;6.40;;;16.00;99.90;;;;;;5093365;28;20536;-78
2021/08/24 01:54:12;;;;;;;12.80;5.82;;;16.00;99.90;;;;;;5093296;28;20488;-78
2021/08/24 01:56:39;;;;;;;17.13;5.85;;;16.00;99.90;;;;;;5093527;28;20028;-77
2021/08/24 01:59:15;;;;;;;13.75;5.65;;;16.00;99.90;;;;;;5075108;28;20116;-78
2021/08/24 02:01:54;;;;;;;16.52;7.32;;;16.00;99.90;;;;;;5093469;28;20107;-79
2021/08/24 02:04:29;;;;;;;16.08;7.25;;;16.10;99.90;;;;;;5092746;28;20104;-78
2021/08/24 02:06:56;;;;;;;17.10;7.17;;;16.10;99.90;;;;;;5093193;28;20024;-78
2021/08/24 02:09:34;;;;;;;16.83;6.68;;;16.00;99.90;;;;;;5074944;28;20262;-78
2021/08/24 02:12:01;;;;;;;16.85;7.30;;;15.90;99.90;;;;;;5093253;28;20027;-78
2021/08/24 02:14:27;;;;;;;15.77;6.38;;;15.90;99.90;;;;;;5093096;28;20477;-78
2021/08/24 02:16:54;;;;;;;14.80;5.68;;;15.90;99.90;;;;;;5093113;28;20024;-79
2021/08/24 02:19:28;;;;;;;14.10;6.32;;;16.00;99.90;;;;;;5093008;28;20024;-78
2021/08/24 02:22:03;;;;;;;16.70;7.25;;;16.10;99.90;;;;;;5093207;28;20032;-79
2021/08/24 02:24:48;;;;;;;17.83;7.18;;;16.10;99.90;;;;;;5074516;28;20489;-78
2021/08/24 02:27:20;;;;;;;16.88;7.28;;;15.90;99.90;;;;;;5093133;28;20024;-79
2021/08/24 02:29:46;;;;;;;16.25;6.75;;;15.80;99.90;;;;;;5092934;28;20051;-78
2021/08/24 02:32:19;;;;;;;;;;;15.80;99.90;;;;;;5095894;28;20048;-78
2021/08/24 02:35:06;;;;;;;18.00;7.05;;;15.90;99.90;;;;;;5097028;28;19926;-78
2021/08/24 02:37:53;;;;;;;16.23;6.95;;;15.90;99.90;;;;;;5078367;28;20377;-78
2021/08/24 02:40:49;;;;;;;18.20;7.00;;;15.90;99.90;;;;;;5096733;28;20024;-78
2021/08/24 02:43:38;;;;;;;15.98;6.70;;;15.90;99.90;;;;;;5044104;28;20081;-77
2021/08/24 02:46:12;;;;;;;17.77;7.15;;;16.00;99.90;;;;;;5096659;28;20031;-78
2021/08/24 02:48:40;;;;;;;16.67;6.10;;;15.90;99.90;;;;;;5078228;28;20060;-79
2021/08/24 02:51:08;;;;;;;17.17;6.40;;;15.90;99.90;;;;;;5078109;28;20024;-78
2021/08/24 02:53:37;;;;;;;19.85;7.10;;;15.90;99.90;;;;;;5096493;28;20026;-78
2021/08/24 02:56:03;;;;;;;21.30;7.38;;;15.80;99.90;;;;;;5096231;28;20028;-79
2021/08/24 02:58:29;;;;;;;14.35;6.28;;;15.60;99.90;;;;;;5096171;28;20099;-78
2021/08/24 03:00:54;;;;;;;;;;;15.50;99.90;;;;;;5096555;28;20056;-78
2021/08/24 03:03:20;;;;;;;14.18;5.60;;;15.60;99.90;;;;;;5095917;28;19968;-78
2021/08/24 03:05:46;;;;;;;;;;;15.80;99.90;;;;;;5096389;28;20055;-76
2021/08/24 03:08:13;;;;;;;12.90;5.78;;;15.80;99.90;;;;;;5096064;28;19904;-78
2021/08/24 03:10:42;;;;;;;14.13;5.30;;;15.70;99.90;;;;;;5095954;28;20012;-78
2021/08/24 03:13:37;;;;;;;12.15;5.95;;;15.70;99.90;;;;;;5095885;28;20024;-78
2021/08/24 03:16:23;;;;;;;17.23;7.43;;;15.60;99.90;;;;;;5096125;28;20016;-79
2021/08/24 03:18:51;;;;;;;;;;;15.50;99.90;;;;;;5096345;28;20028;-78
2021/08/24 03:21:24;;;;;;;13.10;6.35;;;15.50;99.90;;;;;;5095745;28;20387;-77
2021/08/24 03:23:50;;;;;;;17.40;7.63;;;15.50;99.90;;;;;;5095674;28;20024;-78
2021/08/24 03:26:22;;;;;;;13.00;6.28;;;15.40;99.90;;;;;;5095572;28;20028;-77
2021/08/24 03:28:48;;;;;;;15.65;6.63;;;15.40;99.90;;;;;;5095608;28;20016;-78
2021/08/24 03:31:16;;;;;;;;;;;15.40;99.90;;;;;;5096206;28;20393;-78
2021/08/24 03:33:43;;;;;;;14.73;6.07;;;15.60;99.90;;;;;;5095533;28;19904;-77
2021/08/24 03:36:08;;;;;;;15.32;6.65;;;15.60;99.90;;;;;;5077297;28;20044;-78
2021/08/24 03:38:34;;;;;;;;;;;15.70;99.90;;;;;;5095907;28;20067;-78
2021/08/24 03:41:04;;;;;;;17.85;6.72;;;15.70;99.90;;;;;;5095456;28;19966;-79
2021/08/24 03:43:30;;;;;;;16.90;6.28;;;15.60;99.90;;;;;;5094389;28;20416;-78
2021/08/24 03:45:55;;;;;;;;;;;15.50;99.90;;;;;;5095770;28;20115;-79
2021/08/24 03:48:21;;;;;;;16.15;6.05;;;15.40;99.90;;;;;;5095332;28;20033;-78
2021/08/24 03:50:47;;;;;;;12.52;6.18;;;15.50;99.90;;;;;;5095213;28;20476;-78
2021/08/24 03:53:12;;;;;;;;;;;15.60;99.90;;;;;;5095575;28;20035;-78
2021/08/24 03:55:38;;;;;;;;;;;15.50;99.90;;;;;;5095883;28;19904;-78
2021/08/24 03:58:03;;;;;;;;;;;15.50;99.90;;;;;;5095503;28;19904;-78
2021/08/24 04:00:29;;;;;;;;;;;15.50;99.90;;;;;;5095456;28;19995;-78
2021/08/24 04:02:54;;;;;;;;;;;15.40;99.90;;;;;;5095187;28;19943;-78
2021/08/24 04:05:20;;;;;;;;;;;15.30;99.90;;;;;;5095295;28;20291;-78
2021/08/24 04:07:46;;;;;;;;;;;15.30;99.90;;;;;;5095490;28;19908;-78
2021/08/24 04:10:13;;;;;;;27.33;6.80;;;15.30;99.90;;;;;;5095089;28;19904;-78
2021/08/24 04:12:39;;;;;;;16.02;6.70;;;15.30;99.90;;;;;;5094855;28;20024;-79
2021/08/24 04:15:06;;;;;;;;;;;15.40;99.90;;;;;;5095146;28;20020;-79
2021/08/24 04:17:33;;;;;;;20.52;6.65;;;15.40;99.90;;;;;;5094865;28;19991;-77
2021/08/24 04:19:59;;;;;;;15.43;6.20;;;15.30;99.90;;;;;;5094965;28;20190;-78
2021/08/24 04:22:25;;;;;;;;;;;15.50;99.90;;;;;;5095015;28;20547;-78
2021/08/24 04:24:51;;;;;;;15.90;7.07;;;15.50;99.90;;;;;;5094457;28;19915;-78
2021/08/24 04:27:17;;;;;;;16.52;7.20;;;15.40;99.90;;;;;;5094434;28;20107;-78
2021/08/24 04:29:43;;;;;;;19.80;6.47;;;15.40;99.90;;;;;;5094431;28;20481;-78
2021/08/24 04:32:11;;;;;;;;;;;15.40;99.90;;;;;;5094814;28;20062;-78
2021/08/24 04:34:37;;;;;;;25.08;7.18;;;15.50;99.90;;;;;;5094494;28;19904;-78
2021/08/24 04:37:03;;;;;;;;;;;15.60;99.90;;;;;;5094751;28;20556;-78
2021/08/24 04:39:28;;;;;;;16.73;7.78;;;15.70;99.90;;;;;;5094278;28;19904;-79
2021/08/24 04:41:54;;;;;;;18.38;8.38;;;15.60;99.90;;;;;;5094208;28;20020;-78
2021/08/24 04:44:20;;;;;;;21.88;9.48;;;15.60;99.90;;;;;;5094532;28;20036;-78
2021/08/24 04:46:45;;;;;;;19.80;8.90;;;15.60;99.90;;;;;;5094104;28;20020;-78
2021/08/24 04:49:11;;;;;;;;;;;15.60;99.90;;;;;;5094539;28;20021;-78
2021/08/24 04:51:37;;;;;;;15.27;8.07;;;15.40;99.90;;;;;;5094065;28;19915;-78
2021/08/24 04:54:02;;;;;;;;;;;15.50;99.90;;;;;;5094502;28;20031;-78
2021/08/24 04:56:28;;;;;;;;;;;15.60;99.90;;;;;;5094589;28;19904;-78
2021/08/24 04:58:53;;;;;;;;;;;15.60;99.90;;;;;;5094387;28;19908;-78
2021/08/24 05:01:19;;;;;;;24.23;9.38;;;15.50;99.90;;;;;;5075743;28;19965;-77
2021/08/24 05:03:45;;;;;;;18.58;9.18;;;15.60;99.90;;;;;;5093802;28;20115;-78
2021/08/24 05:06:11;;;;;;;19.20;10.13;;;15.60;99.90;;;;;;5093761;28;20046;-78
2021/08/24 05:08:36;;;;;;;18.27;9.57;;;15.50;99.90;;;;;;5093830;28;20012;-78
2021/08/24 05:11:02;;;;;;;;;;;15.50;99.90;;;;;;5094168;28;20028;-79
2021/08/24 05:13:27;;;;;;;;;;;15.50;99.90;;;;;;5094138;28;20361;-77
2021/08/24 05:15:53;;;;;;;;;;;15.50;99.90;;;;;;5094136;28;19954;-78
2021/08/24 05:18:19;;;;;;;;;;;15.50;99.90;;;;;;5094097;28;19954;-78
2021/08/24 05:20:44;;;;;;;17.52;8.50;;;15.50;99.90;;;;;;5093594;28;19911;-78
2021/08/24 05:23:10;;;;;;;17.60;7.72;;;15.40;99.90;;;;;;5093576;28;20020;-78
2021/08/24 05:25:37;;;;;;;;;;;15.40;99.90;;;;;;5093791;28;20496;-79
2021/08/24 05:28:03;;;;;;;18.08;7.90;;;15.50;99.90;;;;;;5093661;28;19991;-78
2021/08/24 05:30:29;;;;;;;16.70;7.63;;;15.70;99.90;;;;;;5093520;28;20013;-78
2021/08/24 05:32:55;;;;;;;;;;;15.80;99.90;;;;;;5075791;28;20043;-78
2021/08/24 05:35:21;;;;;;;17.63;7.85;;;15.80;99.90;;;;;;5093431;28;19931;-78
2021/08/24 05:37:48;;;;;;;26.58;7.90;;;15.70;99.90;;;;;;5093664;28;20069;-78
2021/08/24 05:40:14;;;;;;;16.40;5.93;;;15.80;99.90;;;;;;5093339;28;20024;-78
2021/08/24 05:42:39;;;;;;;;;;;15.90;99.90;;;;;;5093762;28;20499;-78
2021/08/24 05:45:06;;;;;;;26.00;7.57;;;16.00;99.90;;;;;;5093283;28;19904;-78
2021/08/24 05:47:32;;;;;;;14.48;6.30;;;16.00;99.90;;;;;;5075138;28;20051;-77
2021/08/24 05:49:58;;;;;;;;;;;16.20;99.90;;;;;;5075520;28;20493;-78
2021/08/24 05:52:24;;;;;;;17.45;6.38;;;16.40;99.90;;;;;;5093271;28;19911;-79
2021/08/24 05:54:50;;;;;;;;;;;16.50;99.90;;;;;;5093776;28;20020;-79
2021/08/24 05:57:20;;;;;;;15.15;5.60;;;16.80;99.90;;;;;;5093351;28;19911;-78
2021/08/24 05:59:46;;;;;;;15.35;6.65;;;17.00;99.90;;;;;;5075035;28;20024;-79
2021/08/24 06:02:11;;;;;;;;;;;17.10;99.90;;;;;;5093442;28;20031;-78
2021/08/24 06:04:37;;;;;;;16.45;6.55;;;17.10;99.90;;;;;;5093427;28;19911;-78
2021/08/24 06:07:03;;;;;;;;;;;17.40;99.90;;;;;;5095953;28;20504;-78
2021/08/24 06:09:29;;;;;;;21.40;5.80;;;17.50;99.90;;;;;;5078992;28;19957;-79
2021/08/24 06:11:54;;;;;;;;;;;17.50;99.90;;;;;;5097516;28;20023;-77
2021/08/24 06:14:23;;;;;;;14.23;5.95;;;17.70;99.90;;;;;;5097262;28;19904;-79
2021/08/24 06:16:56;;;;;;;16.42;5.15;;;17.50;99.90;;;;;;5097022;28;20024;-78
2021/08/24 06:19:22;;;;;;;22.15;6.30;;;17.70;99.90;;;;;;5096991;28;20510;-79
2021/08/24 06:21:48;;;;;;;13.20;5.03;;;17.80;99.90;;;;;;5097130;28;20028;-78
2021/08/24 06:24:14;;;;;;;15.57;5.38;;;17.60;99.90;;;;;;5078661;28;20024;-79
2021/08/24 06:26:42;;;;;;;13.75;5.53;;;17.70;99.90;;;;;;5078579;28;20078;-78
2021/08/24 06:29:08;;;;;;;23.55;5.50;;;17.70;99.90;;;;;;5078428;28;20051;-79
2021/08/24 06:31:39;;;;;;;18.27;5.57;;;17.90;99.90;;;;;;5096966;28;20031;-79
2021/08/24 06:34:06;;;;;;;32.67;6.85;;;18.20;99.90;;;;;;5096616;28;20016;-78
2021/08/24 06:36:32;;;;;;;11.38;4.47;;;18.50;99.90;;;;;;5096664;28;20468;-79
2021/08/24 06:38:58;;;;;;;19.92;5.40;;;18.50;99.90;;;;;;5096608;28;20028;-78
2021/08/24 06:41:24;;;;;;;15.00;5.70;;;18.50;99.90;;;;;;5096720;28;20051;-77
2021/08/24 06:43:50;;;;;;;15.27;5.53;;;18.40;99.90;;;;;;5096640;28;20020;-79
2021/08/24 06:46:16;;;;;;;14.82;6.10;;;19.00;99.90;;;;;;5096448;28;20028;-79
2021/08/24 06:48:42;;;;;;;16.17;5.70;;;19.20;99.90;;;;;;5096488;28;20085;-78
2021/08/24 06:51:09;;;;;;;16.05;5.03;;;19.30;99.90;;;;;;5096612;28;20028;-78
2021/08/24 06:53:36;;;;;;;20.08;5.90;;;19.00;99.90;;;;;;5096346;28;20020;-79
2021/08/24 06:56:03;;;;;;;14.52;5.13;;;19.00;99.90;;;;;;5096333;28;20036;-79
2021/08/24 06:58:29;;;;;;;15.82;5.75;;;19.00;99.90;;;;;;5096337;28;20020;-79
2021/08/24 07:00:55;;;;;;;14.00;5.20;;;18.90;99.90;;;;;;5077484;28;20036;-79
2021/08/24 07:03:21;;;;;;;13.82;5.13;;;18.80;99.90;;;;;;5095907;28;20070;-77
2021/08/24 07:05:49;;;;;;;17.67;4.93;;;19.10;99.90;;;;;;5096002;28;20024;-79
2021/08/24 07:08:18;;;;;;;27.73;5.82;;;19.10;99.90;;;;;;5077834;28;20039;-78
2021/08/24 07:10:45;;;;;;;16.02;6.80;;;19.40;99.90;;;;;;5076129;28;20123;-79
2021/08/24 07:13:11;;;;;;;15.50;5.32;;;19.30;99.90;;;;;;5077392;28;20162;-77
2021/08/24 07:15:38;;;;;;;17.38;6.03;;;19.30;99.90;;;;;;5096145;28;20111;-78
2021/08/24 07:18:06;;;;;;;14.18;5.60;;;19.20;99.90;;;;;;5094529;28;20491;-79
2021/08/24 07:20:32;;;;;;;13.32;5.47;;;19.10;99.90;;;;;;5095767;28;20032;-78
2021/08/24 07:23:00;;;;;;;15.40;6.60;;;18.90;99.90;;;;;;5095749;28;20020;-79
2021/08/24 07:25:26;;;;;;;20.95;6.80;;;18.60;99.90;;;;;;5077511;28;20396;-78
2021/08/24 07:27:53;;;;;;;13.35;6.07;;;18.40;99.90;;;;;;5095742;28;20075;-79
2021/08/24 07:30:19;;;;;;;16.13;6.15;;;18.40;99.90;;;;;;5077593;28;20059;-80
2021/08/24 07:32:45;;;;;;;13.50;5.60;;;18.90;99.90;;;;;;5077514;28;20020;-77
2021/08/24 07:35:23;;;;;;;12.25;5.30;;;19.40;99.90;;;;;;5095130;28;20492;-79
2021/08/24 07:37:49;;;;;;;15.63;7.03;;;19.50;99.90;;;;;;5061085;28;20039;-79
2021/08/24 07:40:15;;;;;;;14.95;6.68;;;19.50;99.90;;;;;;5095444;28;20024;-78
2021/08/24 07:42:41;;;;;;;17.33;7.03;;;19.30;99.90;;;;;;5095821;28;20055;-79
2021/08/24 07:45:08;;;;;;;28.98;8.68;;;19.30;99.90;;;;;;5095367;28;20024;-78
2021/08/24 07:47:33;;;;;;;21.17;8.60;;;19.20;99.90;;;;;;5095323;28;20077;-78
2021/08/24 07:49:59;;;;;;;19.08;9.00;;;18.80;99.90;;;;;;5095499;28;20024;-79
2021/08/24 07:52:25;;;;;;;21.13;9.70;;;18.70;99.90;;;;;;5077292;28;20500;-77
2021/08/24 07:54:51;;;;;;;17.15;8.73;;;18.60;99.90;;;;;;5095140;28;20028;-78
2021/08/24 07:57:16;;;;;;;24.02;9.02;;;18.60;99.90;;;;;;5095402;28;20468;-79
2021/08/24 07:59:43;;;;;;;;;;;18.70;99.90;;;;;;5095500;28;20373;-78
2021/08/24 08:02:13;;;;;;;19.83;10.00;;;18.60;99.90;;;;;;5094776;28;19904;-79
2021/08/24 08:04:39;;;;;;;22.77;9.20;;;18.70;99.90;;;;;;5095162;28;20110;-79
2021/08/24 08:07:05;;;;;;;16.55;9.88;;;18.80;99.90;;;;;;5094933;28;20467;-78
2021/08/24 08:09:31;;;;;;;20.52;9.93;;;18.70;99.90;;;;;;5094980;28;20387;-79
2021/08/24 08:11:56;;;;;;;22.77;10.40;;;18.80;99.90;;;;;;5094765;28;20472;-79
2021/08/24 08:14:22;;;;;;;19.90;10.77;;;18.80;99.90;;;;;;5094790;28;20012;-78
2021/08/24 08:16:48;;;;;;;22.13;12.07;;;19.00;99.90;;;;;;5076619;28;20036;-80
2021/08/24 08:19:14;;;;;;;21.35;11.48;;;18.80;99.90;;;;;;5094685;28;20020;-78
2021/08/24 08:21:40;;;;;;;20.98;12.05;;;18.80;99.90;;;;;;5076430;28;20052;-79
2021/08/24 08:24:08;;;;;;;18.55;11.57;;;18.90;99.90;;;;;;5094529;28;20024;-78
2021/08/24 08:26:34;;;;;;;19.90;11.07;;;18.90;99.90;;;;;;5093091;28;20429;-79
2021/08/24 08:29:06;;;;;;;19.50;12.50;;;19.00;99.90;;;;;;5075899;28;20115;-79
2021/08/24 08:31:33;;;;;;;22.85;12.60;;;19.00;99.90;;;;;;5094664;28;20396;-78
2021/08/24 08:34:00;;;;;;;20.25;12.20;;;19.10;99.90;;;;;;5094462;28;20073;-78
2021/08/24 08:36:27;;;;;;;22.60;12.43;;;19.10;99.90;;;;;;5076210;28;20035;-79
2021/08/24 08:38:54;;;;;;;19.40;11.18;;;19.20;99.90;;;;;;5076380;28;20114;-79
2021/08/24 08:41:35;;;;;;;21.50;12.20;;;19.30;99.90;;;;;;5076018;28;20136;-80
2021/08/24 08:44:34;;;;;;;20.50;11.43;;;19.40;99.90;;;;;;5094591;28;20464;-79
2021/08/24 08:47:21;;;;;;;19.30;10.93;;;19.50;99.90;;;;;;5094209;28;20080;-80
2021/08/24 08:49:53;;;;;;;17.65;10.73;;;19.70;99.90;;;;;;5094443;28;20026;-80
2021/08/24 08:52:45;;;;;;;23.58;11.25;;;19.80;99.90;;;;;;5094624;28;20024;-80
2021/08/24 08:55:24;;;;;;;18.05;10.82;;;20.20;99.90;;;;;;5094629;28;20024;-79
2021/08/24 08:58:31;;;;;;;17.08;10.40;;;20.30;99.90;;;;;;5094336;28;20423;-79
2021/08/24 09:01:10;;;;;;;22.00;11.00;;;20.40;99.90;;;;;;5093902;28;20016;-79
2021/08/24 09:03:45;;;;;;;19.25;9.35;;;20.60;99.90;;;;;;5071945;28;20048;-79
2021/08/24 09:06:13;;;;;;;17.88;8.93;;;20.80;99.90;;;;;;5073689;28;20131;-79
2021/08/24 09:08:41;;;;;;;16.10;9.18;;;21.10;99.90;;;;;;5073743;28;20051;-79
2021/08/24 09:11:07;;;;;;;18.58;9.80;;;21.20;99.90;;;;;;5073569;28;20070;-79
2021/08/24 09:13:37;;;;;;;28.45;10.13;;;21.60;99.90;;;;;;5073654;28;20431;-79
2021/08/24 09:16:30;;;;;;;16.20;9.50;;;21.70;99.90;;;;;;5072225;28;20031;-79
2021/08/24 09:19:02;;;;;;;19.33;9.40;;;22.40;99.90;;;;;;5071896;28;20039;-79
2021/08/24 09:21:35;;;;;;;16.02;7.43;;;23.00;99.90;;;;;;5072120;28;20120;-80
2021/08/24 09:24:10;;;;;;;16.33;8.50;;;25.10;99.90;;;;;;5073584;28;20111;-80
2021/08/24 09:26:46;;;;;;;16.08;7.95;;;24.60;99.90;;;;;;5071966;28;20509;-79
2021/08/24 09:29:13;;;;;;;12.00;6.25;;;24.70;99.90;;;;;;5073342;28;20423;-79
2021/08/24 09:31:41;;;;;;;15.27;7.97;;;25.60;99.90;;;;;;5073242;28;20384;-79
2021/08/24 09:34:10;;;;;;;17.63;7.93;;;25.70;99.90;;;;;;5055581;28;20025;-80
2021/08/24 09:36:36;;;;;;;22.13;8.00;;;25.90;99.10;;;;;;5073289;28;20021;-79
2021/08/24 09:39:03;;;;;;;14.60;7.40;;;26.60;99.60;;;;;;5073221;28;20028;-80
2021/08/24 09:41:36;;;;;;;14.02;8.30;;;26.90;98.10;;;;;;5071131;28;20074;-80
2021/08/24 09:44:25;;;;;;;16.55;7.68;;;28.50;96.10;;;;;;5073486;28;20033;-80
2021/08/24 09:47:13;;;;;;;14.73;7.30;;;28.90;92.70;;;;;;5071784;28;20078;-80
2021/08/24 09:49:43;;;;;;;15.45;7.43;;;27.90;93.50;;;;;;5072488;28;20452;-80
2021/08/24 09:52:21;;;;;;;16.98;8.00;;;30.10;90.70;;;;;;5071579;28;20074;-79
2021/08/24 09:54:53;;;;;;;13.57;8.13;;;31.10;87.50;;;;;;5073333;28;20104;-80
2021/08/24 09:57:32;;;;;;;12.35;7.13;;;31.10;86.20;;;;;;5073433;28;20024;-81
2021/08/24 10:00:04;;;;;;;14.38;7.40;;;32.10;85.30;;;;;;5071555;28;20024;-81
2021/08/24 10:02:40;;;;;;;12.65;6.00;;;35.50;70.70;;;;;;5076839;28;20040;-82
2021/08/24 10:05:21;;;;;;;11.02;5.95;;;36.80;64.30;;;;;;5093167;28;20020;-81
2021/08/24 10:07:50;;;;;;;12.60;6.32;;;36.20;58.70;;;;;;5093343;28;20374;-81
2021/08/24 10:10:38;;;;;;;12.85;7.15;;;37.00;59.50;;;;;;5093370;28;20495;-81
2021/08/24 10:13:30;;;;;;;11.27;6.60;;;37.70;54.40;;;;;;5057057;28;20044;-82
2021/08/24 10:16:31;;;;;;;11.35;6.47;;;37.80;53.60;;;;;;5093374;28;20384;-80
2021/08/24 10:19:15;;;;;;;12.53;7.17;;;38.50;52.70;;;;;;5061639;28;20032;-80
2021/08/24 10:21:50;;;;;;;11.38;6.22;;;39.70;49.90;;;;;;5074817;28;20492;-80
2021/08/24 10:24:24;;;;;;;11.32;5.78;;;40.50;49.00;;;;;;5074790;28;20024;-80
2021/08/24 10:26:54;;;;;;;10.60;6.07;;;42.40;46.60;;;;;;5093220;28;20025;-81
2021/08/24 10:29:27;;;;;;;69.78;11.52;;;41.50;46.10;;;;;;5093231;28;20081;-82
2021/08/24 10:31:58;;;;;;;11.18;6.30;;;42.60;44.30;;;;;;5093535;28;20345;-82
2021/08/24 10:34:32;;;;;;;11.40;7.07;;;42.30;45.40;;;;;;5093217;28;20070;-83
2021/08/24 10:37:26;;;;;;;12.60;6.57;;;42.80;43.50;;;;;;5092818;28;20030;-82
2021/08/24 10:40:08;;;;;;;15.27;6.43;;;40.50;44.20;;;;;;5074443;28;20052;-82
2021/08/24 10:42:36;;;;;;;11.60;6.10;;;39.90;45.20;;;;;;5093138;28;20020;-82
2021/08/24 10:45:27;;;;;;;13.07;6.30;;;38.90;47.30;;;;;;5092828;28;20264;-82
2021/08/24 10:47:56;;;;;;;11.35;5.82;;;40.40;44.40;;;;;;5074396;28;20107;-81
2021/08/24 10:50:33;;;;;;;11.55;6.15;;;36.60;48.60;;;;;;5074598;28;20365;-81
2021/08/24 10:53:33;;;;;;;16.40;7.15;;;38.80;47.50;;;;;;5094945;28;20084;-82
2021/08/24 10:56:11;;;;;;;10.95;5.55;;;37.70;45.80;;;;;;5096288;28;20062;-82
2021/08/24 10:58:49;;;;;;;12.25;6.60;;;41.90;44.30;;;;;;5076581;28;20028;-82
2021/08/24 11:01:47;;;;;;;14.20;6.00;;;42.00;42.30;;;;;;5077636;28;20047;-82
2021/08/24 11:04:43;;;;;;;12.60;6.00;;;38.40;44.80;;;;;;5095750;28;20044;-81
2021/08/24 11:07:27;;;;;;;10.02;6.20;;;38.70;45.10;;;;;;5077655;28;20050;-82
2021/08/24 11:10:13;;;;;;;12.27;6.57;;;42.50;42.70;;;;;;5096105;28;20028;-80
2021/08/24 11:12:54;;;;;;;11.25;5.70;;;43.10;41.70;;;;;;5096143;28;20383;-80
2021/08/24 11:15:38;;;;;;;10.85;5.47;;;41.40;43.10;;;;;;5077493;28;20488;-79
2021/08/24 11:18:24;;;;;;;10.50;6.22;;;41.00;43.00;;;;;;5095897;28;20039;-80
2021/08/24 11:21:15;;;;;;;10.60;6.07;;;40.20;42.80;;;;;;5077419;28;20080;-80
2021/08/24 11:23:59;;;;;;;12.98;6.35;;;40.20;43.90;;;;;;5095838;28;20024;-79
2021/08/24 11:26:49;;;;;;;10.63;5.88;;;38.70;45.40;;;;;;5095844;28;20016;-80
2021/08/24 11:29:35;;;;;;;11.50;6.00;;;39.60;43.90;;;;;;5095758;28;20020;-80
2021/08/24 11:32:06;;;;;;;10.30;6.15;;;40.40;43.30;;;;;;5096225;28;20046;-80
2021/08/24 11:34:56;;;;;;;13.88;6.03;;;40.60;43.20;;;;;;5077428;28;20491;-80
2021/08/24 11:37:33;;;;;;;10.35;6.20;;;41.30;42.60;;;;;;5095802;28;20035;-80
2021/08/24 11:40:09;;;;;;;12.18;5.90;;;42.60;41.60;;;;;;5095753;28;20027;-80
2021/08/24 11:42:38;;;;;;;9.35;4.82;;;42.50;40.70;;;;;;5076947;28;20554;-79
2021/08/24 11:45:09;;;;;;;16.80;6.22;;;39.50;41.60;;;;;;5095372;28;20032;-79
2021/08/24 11:47:52;;;;;;;10.75;5.68;;;41.20;42.70;;;;;;5095580;28;20050;-80
2021/08/24 11:50:23;;;;;;;9.02;5.63;;;42.60;42.10;;;;;;5095427;28;20074;-80
2021/08/24 11:53:17;;;;;;;9.15;5.15;;;40.60;42.50;;;;;;5076808;28;20024;-79
2021/08/24 11:55:49;;;;;;;10.40;5.20;;;37.30;43.40;;;;;;5095021;28;20024;-80
2021/08/24 11:58:21;;;;;;;11.23;5.38;;;40.10;44.10;;;;;;5095251;28;20031;-80
2021/08/24 12:00:53;;;;;;;9.55;4.63;;;41.40;41.20;;;;;;5094634;28;20476;-80
2021/08/24 12:03:21;;;;;;;12.03;4.70;;;42.10;40.60;;;;;;5094288;28;20071;-80
2021/08/24 12:05:58;;;;;;;9.80;4.55;;;43.20;39.50;;;;;;5076795;28;20273;-80
2021/08/24 12:08:29;;;;;;;10.20;4.80;;;43.80;39.50;;;;;;5094890;28;20039;-80
2021/08/24 12:11:14;;;;;;;10.50;5.00;;;43.90;38.40;;;;;;5094960;28;20024;-81
2021/08/24 12:13:46;;;;;;;11.82;4.75;;;43.90;38.30;;;;;;5076502;28;20032;-81
2021/08/24 12:16:21;;;;;;;8.63;4.68;;;45.80;38.10;;;;;;5076314;28;20381;-80
2021/08/24 12:18:57;;;;;;;8.85;4.80;;;45.10;37.40;;;;;;5094948;28;20031;-81
2021/08/24 12:21:34;;;;;;;9.45;4.40;;;44.70;38.20;;;;;;5076201;28;20016;-81
2021/08/24 12:24:21;;;;;;;11.77;5.15;;;46.20;36.50;;;;;;5094608;28;20024;-81
2021/08/24 12:26:47;;;;;;;10.82;4.90;;;45.80;36.50;;;;;;5094534;28;20032;-80
2021/08/24 12:29:35;;;;;;;7.88;4.20;;;46.10;36.30;;;;;;5094580;28;20024;-81
2021/08/24 12:32:31;;;;;;;8.38;4.25;;;47.40;36.20;;;;;;5094836;28;20117;-80
2021/08/24 12:35:06;;;;;;;10.80;3.70;;;42.00;38.40;;;;;;5094403;28;20032;-79
2021/08/24 12:37:31;;;;;;;8.68;4.20;;;37.20;41.30;;;;;;5076117;28;20492;-80
2021/08/24 12:40:36;;;;;;;8.30;3.78;;;40.00;40.40;;;;;;5094335;28;20024;-79
2021/08/24 12:43:02;;;;;;;9.50;4.10;;;37.40;41.50;;;;;;5075797;28;20024;-82
2021/08/24 12:45:34;;;;;;;8.27;3.90;;;38.90;43.50;;;;;;5094259;28;20016;-83
2021/08/24 12:48:20;;;;;;;9.50;4.22;;;42.70;39.30;;;;;;5075803;28;20052;-83
2021/08/24 12:51:02;;;;;;;10.95;3.88;;;45.20;38.20;;;;;;5094167;28;20020;-82
2021/08/24 12:53:28;;;;;;;8.45;3.97;;;43.60;38.20;;;;;;5094689;28;20028;-82
2021/08/24 12:55:58;;;;;;;8.70;4.18;;;44.40;37.80;;;;;;5094239;28;20037;-83
2021/08/24 12:58:30;;;;;;;7.45;3.13;;;45.20;36.30;;;;;;5094015;28;20483;-82
2021/08/24 13:01:11;;;;;;;8.27;3.45;;;40.00;38.60;;;;;;5093994;28;20016;-80
2021/08/24 13:03:39;;;;;;;7.93;3.58;;;36.30;41.40;;;;;;5093835;28;20040;-82
2021/08/24 13:06:29;;;;;;;7.35;3.63;;;35.40;42.60;;;;;;5094459;28;20450;-81
2021/08/24 13:09:26;;;;;;;8.05;3.75;;;37.80;42.30;;;;;;5094436;28;20469;-82
2021/08/24 13:12:15;;;;;;;8.38;4.03;;;38.50;43.10;;;;;;5094375;28;20480;-82
2021/08/24 13:14:52;;;;;;;14.55;3.88;;;44.40;38.50;;;;;;5093678;28;20161;-82